Time;durP1;ratioP1;P1;durP2;ratioP2;P2;SDS_P1;SDS_P2;PMS_P1;PMS_P2;Temp;Humidity;BMP_temperature;BMP_pressure;BME280_temperature;BME280_humidity;BME280_pressure;Samples;Min_cycle;Max_cycle;Signal;HPM_P1;HPM_P2
2022/07/15 00:01:28;;;;;;;1.73;1.17;;;;;;;;;;5095648;28;20138;-81
2022/07/15 00:03:54;;;;;;;6.22;1.10;;;;;;;;;;5087732;28;20016;-81
2022/07/15 00:06:19;;;;;;;2.20;1.00;;;;;;;;;;5076187;28;20020;-82
2022/07/15 00:08:44;;;;;;;3.08;1.58;;;;;;;;;;5095312;28;20069;-81
2022/07/15 00:11:10;;;;;;;2.70;1.00;;;;;;;;;;5077902;28;20055;-82
2022/07/15 00:13:36;;;;;;;2.58;1.17;;;;;;;;;;5097262;28;20131;-81
2022/07/15 00:16:02;;;;;;;6.10;1.10;;;;;;;;;;5094845;28;20032;-82
2022/07/15 00:18:27;;;;;;;4.35;1.08;;;;;;;;;;5088944;28;20032;-82
2022/07/15 00:20:53;;;;;;;4.65;1.10;;;;;;;;;;5096071;28;20055;-81
2022/07/15 00:23:18;;;;;;;3.13;1.50;;;;;;;;;;5090530;28;20059;-81
2022/07/15 00:25:44;;;;;;;4.25;1.40;;;;;;;;;;5095986;28;20738;-81
2022/07/15 00:28:09;;;;;;;2.97;1.40;;;;;;;;;;5095726;28;20043;-81
2022/07/15 00:30:35;;;;;;;2.65;1.30;;;;;;;;;;5096036;28;20426;-81
2022/07/15 00:33:01;;;;;;;2.67;1.25;;;;;;;;;;5095163;28;20482;-81
2022/07/15 00:35:27;;;;;;;3.88;1.20;;;;;;;;;;5093556;28;20059;-81
2022/07/15 00:37:53;;;;;;;1.98;1.40;;;;;;;;;;5061239;28;20423;-81
2022/07/15 00:40:18;;;;;;;2.58;1.20;;;;;;;;;;5057230;28;20035;-80
2022/07/15 00:42:44;;;;;;;3.35;1.90;;;;;;;;;;5075053;28;20036;-81
2022/07/15 00:45:13;;;;;;;3.35;1.40;;;;;;;;;;5058066;28;20426;-81
2022/07/15 00:47:40;;;;;;;3.92;1.23;;;;;;;;;;5074030;28;20033;-82
2022/07/15 00:50:05;;;;;;;3.45;1.20;;;;;;;;;;5074466;28;20020;-81
2022/07/15 00:52:31;;;;;;;1.27;1.08;;;;;;;;;;5083485;28;20067;-81
2022/07/15 00:54:57;;;;;;;1.65;1.10;;;;;;;;;;5047513;28;20029;-80
2022/07/15 00:57:23;;;;;;;3.60;1.20;;;;;;;;;;5065889;28;20040;-80
2022/07/15 00:59:49;;;;;;;3.15;1.13;;;;;;;;;;5089358;28;20020;-82
2022/07/15 01:02:14;;;;;;;3.60;1.20;;;;;;;;;;5085188;28;20036;-80
2022/07/15 01:04:40;;;;;;;2.10;1.17;;;;;;;;;;5089167;28;20028;-81
2022/07/15 01:07:05;;;;;;;3.40;1.20;;;;;;;;;;5076745;28;20406;-81
2022/07/15 01:09:31;;;;;;;2.58;1.25;;;;;;;;;;5076695;28;20414;-81
2022/07/15 01:11:56;;;;;;;2.42;1.35;;;;;;;;;;5076508;28;20063;-81
2022/07/15 01:14:23;;;;;;;3.65;1.58;;;;;;;;;;5093950;28;20098;-81
2022/07/15 01:16:49;;;;;;;2.25;1.23;;;;;;;;;;5093285;28;20099;-82
2022/07/15 01:19:17;;;;;;;2.90;1.30;;;;;;;;;;5063877;28;20097;-81
2022/07/15 01:21:44;;;;;;;2.20;1.20;;;;;;;;;;5092498;28;20827;-81
2022/07/15 01:24:10;;;;;;;3.03;1.30;;;;;;;;;;5091441;28;20016;-81
2022/07/15 01:26:47;;;;;;;3.60;1.40;;;;;;;;;;5094536;28;20550;-81
2022/07/15 01:29:16;;;;;;;2.97;1.27;;;;;;;;;;5062345;28;20029;-81
2022/07/15 01:31:42;;;;;;;2.45;1.50;;;;;;;;;;5058015;28;20052;-80
2022/07/15 01:34:08;;;;;;;2.10;1.30;;;;;;;;;;5074347;28;20036;-81
2022/07/15 01:36:34;;;;;;;2.42;1.40;;;;;;;;;;5058752;28;20483;-81
2022/07/15 01:39:00;;;;;;;3.25;1.40;;;;;;;;;;5074857;28;20090;-81
2022/07/15 01:41:26;;;;;;;2.53;1.40;;;;;;;;;;5057992;28;20040;-81
2022/07/15 01:43:52;;;;;;;2.83;1.33;;;;;;;;;;5088525;28;20032;-81
2022/07/15 01:46:18;;;;;;;2.33;1.50;;;;;;;;;;5067998;28;20020;-81
2022/07/15 01:51:52;;;;;;;3.47;1.70;;;;;;;;;;5055613;28;20463;-81
2022/07/15 01:54:18;;;;;;;1.80;1.15;;;;;;;;;;5073866;28;20036;-81
2022/07/15 01:56:44;;;;;;;2.03;1.50;;;;;;;;;;5075832;28;20039;-82
2022/07/15 01:59:10;;;;;;;3.28;1.38;;;;;;;;;;5084006;28;20078;-81
2022/07/15 02:01:36;;;;;;;3.20;1.60;;;;;;;;;;5056963;28;21463;-81
2022/07/15 02:04:06;;;;;;;2.78;1.42;;;;;;;;;;5057939;28;20036;-81
2022/07/15 02:06:31;;;;;;;5.75;1.60;;;;;;;;;;5089746;28;20031;-80
2022/07/15 02:08:57;;;;;;;4.32;1.60;;;;;;;;;;5047297;28;20021;-81
2022/07/15 02:11:26;;;;;;;3.83;1.55;;;;;;;;;;5069841;28;20083;-81
2022/07/15 02:13:53;;;;;;;2.25;1.40;;;;;;;;;;5043547;28;20065;-81
2022/07/15 02:16:21;;;;;;;4.25;1.55;;;;;;;;;;5054110;28;20029;-80
2022/07/15 02:18:48;;;;;;;3.25;1.40;;;;;;;;;;5061412;28;20033;-80
2022/07/15 02:21:14;;;;;;;2.58;1.50;;;;;;;;;;5088752;28;20094;-80
2022/07/15 02:23:40;;;;;;;3.60;1.48;;;;;;;;;;5073274;28;20029;-82
2022/07/15 02:26:05;;;;;;;4.65;1.60;;;;;;;;;;5077931;28;20032;-81
2022/07/15 02:28:31;;;;;;;5.45;1.50;;;;;;;;;;5089892;28;20179;-81
2022/07/15 02:30:57;;;;;;;2.65;1.65;;;;;;;;;;5086244;28;20067;-82
2022/07/15 02:33:22;;;;;;;6.13;1.88;;;;;;;;;;5076364;28;20033;-82
2022/07/15 02:35:49;;;;;;;3.33;1.70;;;;;;;;;;5060789;28;20161;-82
2022/07/15 02:38:15;;;;;;;2.78;1.60;;;;;;;;;;5061213;28;20062;-80
2022/07/15 02:40:41;;;;;;;3.00;1.50;;;;;;;;;;5078818;28;20036;-82
2022/07/15 02:43:08;;;;;;;4.35;1.92;;;;;;;;;;5078448;28;20040;-81
2022/07/15 02:45:35;;;;;;;3.05;1.67;;;;;;;;;;5079338;28;20448;-81
2022/07/15 02:48:04;;;;;;;2.15;1.40;;;;;;;;;;5061829;28;20541;-82
2022/07/15 02:50:33;;;;;;;4.50;1.63;;;;;;;;;;5047705;28;20056;-82
2022/07/15 02:52:59;;;;;;;3.05;1.42;;;;;;;;;;5046630;28;20036;-81
2022/07/15 02:55:25;;;;;;;5.32;1.88;;;;;;;;;;5059872;28;20033;-81
2022/07/15 02:57:51;;;;;;;2.42;1.40;;;;;;;;;;5071401;28;20217;-81
2022/07/15 03:00:19;;;;;;;3.90;1.73;;;;;;;;;;5078892;28;20044;-81
2022/07/15 03:02:47;;;;;;;3.72;1.60;;;;;;;;;;5043393;28;20024;-81
2022/07/15 03:05:13;;;;;;;3.20;1.67;;;;;;;;;;5059736;28;20044;-81
2022/07/15 03:07:40;;;;;;;4.82;1.80;;;;;;;;;;5079022;28;20161;-81
2022/07/15 03:10:07;;;;;;;3.28;1.77;;;;;;;;;;5064197;28;20066;-80
2022/07/15 03:12:32;;;;;;;3.45;1.60;;;;;;;;;;5062751;28;20120;-81
2022/07/15 03:14:58;;;;;;;3.60;1.70;;;;;;;;;;5058592;28;20051;-81
2022/07/15 03:17:24;;;;;;;3.50;1.70;;;;;;;;;;5055579;28;20027;-82
2022/07/15 03:19:49;;;;;;;3.15;1.58;;;;;;;;;;5077275;28;20032;-81
2022/07/15 03:22:15;;;;;;;4.70;2.03;;;;;;;;;;5068706;28;20387;-81
2022/07/15 03:24:41;;;;;;;3.22;1.80;;;;;;;;;;5057259;28;20035;-82
2022/07/15 03:27:08;;;;;;;6.63;1.92;;;;;;;;;;5084395;28;20112;-82
2022/07/15 03:29:34;;;;;;;3.13;1.50;;;;;;;;;;5058028;28;20025;-81
2022/07/15 03:32:00;;;;;;;3.53;1.95;;;;;;;;;;5072999;28;20411;-83
2022/07/15 03:34:26;;;;;;;6.47;1.70;;;;;;;;;;5065996;28;20032;-81
2022/07/15 03:36:52;;;;;;;5.10;1.88;;;;;;;;;;5088786;28;20089;-81
2022/07/15 03:39:20;;;;;;;3.83;1.90;;;;;;;;;;5063564;28;20062;-82
2022/07/15 03:41:46;;;;;;;3.05;1.63;;;;;;;;;;5093498;28;20468;-81
2022/07/15 03:44:13;;;;;;;4.35;1.83;;;;;;;;;;5094596;28;20152;-82
2022/07/15 03:46:39;;;;;;;4.25;2.22;;;;;;;;;;5094109;28;20175;-81
2022/07/15 03:49:05;;;;;;;6.45;1.95;;;;;;;;;;5052034;28;20039;-81
2022/07/15 03:51:32;;;;;;;5.47;2.10;;;;;;;;;;5078120;28;20035;-81
2022/07/15 03:54:01;;;;;;;4.65;2.30;;;;;;;;;;5094869;28;20035;-80
2022/07/15 03:56:26;;;;;;;4.38;1.95;;;;;;;;;;5090785;28;20024;-81
2022/07/15 03:58:52;;;;;;;3.67;1.98;;;;;;;;;;5085421;28;20438;-81
2022/07/15 04:01:17;;;;;;;4.00;2.38;;;;;;;;;;5092546;28;20200;-81
2022/07/15 04:03:43;;;;;;;5.82;2.00;;;;;;;;;;5072480;28;20592;-80
2022/07/15 04:06:09;;;;;;;5.90;2.50;;;;;;;;;;5085574;28;20027;-81
2022/07/15 04:08:34;;;;;;;4.07;2.22;;;;;;;;;;5074304;28;20044;-81
2022/07/15 04:11:00;;;;;;;3.22;2.10;;;;;;;;;;5085999;28;20056;-81
2022/07/15 04:13:26;;;;;;;3.72;2.08;;;;;;;;;;5090126;28;20127;-81
2022/07/15 04:15:52;;;;;;;4.13;1.90;;;;;;;;;;5085660;28;20082;-81
2022/07/15 04:18:17;;;;;;;2.58;1.92;;;;;;;;;;5073293;28;20057;-81
2022/07/15 04:20:43;;;;;;;5.53;1.83;;;;;;;;;;5069466;28;20031;-81
2022/07/15 04:23:09;;;;;;;2.88;1.90;;;;;;;;;;5090382;28;20047;-80
2022/07/15 04:25:35;;;;;;;3.65;2.08;;;;;;;;;;5085554;28;20017;-81
2022/07/15 04:28:01;;;;;;;4.97;1.92;;;;;;;;;;5069786;28;20115;-81
2022/07/15 04:30:30;;;;;;;7.15;2.15;;;;;;;;;;5072257;28;20028;-81
2022/07/15 04:32:55;;;;;;;3.72;2.10;;;;;;;;;;5056717;28;20132;-81
2022/07/15 04:35:25;;;;;;;4.72;2.10;;;;;;;;;;5074393;28;20029;-81
2022/07/15 04:37:59;;;;;;;4.05;1.90;;;;;;;;;;5070440;28;20501;-80
2022/07/15 04:40:25;;;;;;;3.60;1.90;;;;;;;;;;5065145;28;20074;-81
2022/07/15 04:42:52;;;;;;;6.60;1.80;;;;;;;;;;5063281;28;20029;-81
2022/07/15 04:45:18;;;;;;;4.60;2.17;;;;;;;;;;5091974;28;20024;-82
2022/07/15 04:47:43;;;;;;;2.78;1.70;;;;;;;;;;5091901;28;20038;-82
2022/07/15 04:52:59;;;;;;;3.55;2.20;;;;;;;;;;5092146;28;20028;-80
2022/07/15 04:55:24;;;;;;;6.75;2.30;;;;;;;;;;5075554;28;20509;-82
2022/07/15 04:57:59;;;;;;;3.65;1.65;;;;;;;;;;5076781;28;20372;-81
2022/07/15 05:00:25;;;;;;;3.97;2.17;;;;;;;;;;5076205;28;20088;-81
2022/07/15 05:02:51;;;;;;;4.15;1.98;;;;;;;;;;5062900;28;20016;-82
2022/07/15 05:05:16;;;;;;;3.00;2.05;;;;;;;;;;5093474;28;20517;-82
2022/07/15 05:07:42;;;;;;;4.85;2.00;;;;;;;;;;5076463;28;20027;-81
2022/07/15 05:10:08;;;;;;;2.50;1.77;;;;;;;;;;5075499;28;20570;-80
2022/07/15 05:12:35;;;;;;;4.88;2.05;;;;;;;;;;5091148;28;20020;-81
2022/07/15 05:15:01;;;;;;;4.43;1.60;;;;;;;;;;5075442;28;20036;-81
2022/07/15 05:17:27;;;;;;;5.10;2.50;;;;;;;;;;5073520;28;20017;-81
2022/07/15 05:19:52;;;;;;;6.57;2.40;;;;;;;;;;5072655;28;20036;-81
2022/07/15 05:22:21;;;;;;;4.35;2.13;;;;;;;;;;5072482;28;20113;-82
2022/07/15 05:24:47;;;;;;;3.97;1.98;;;;;;;;;;5055760;28;20182;-81
2022/07/15 05:27:14;;;;;;;3.63;2.17;;;;;;;;;;5053050;28;20027;-82
2022/07/15 05:29:40;;;;;;;6.00;2.50;;;;;;;;;;5092253;28;20462;-82
2022/07/15 05:32:06;;;;;;;3.53;2.00;;;;;;;;;;5058583;28;20059;-82
2022/07/15 05:34:32;;;;;;;2.35;1.70;;;;;;;;;;5092044;28;20398;-81
2022/07/15 05:36:58;;;;;;;2.67;1.80;;;;;;;;;;5076011;28;20042;-83
2022/07/15 05:39:23;;;;;;;5.18;2.25;;;;;;;;;;5085766;28;20052;-81
2022/07/15 05:41:52;;;;;;;4.63;1.60;;;;;;;;;;5084995;28;20054;-81
2022/07/15 05:44:18;;;;;;;5.22;1.70;;;;;;;;;;5049677;28;20028;-80
2022/07/15 05:46:46;;;;;;;5.40;1.85;;;;;;;;;;5076232;28;20051;-82
2022/07/15 05:49:12;;;;;;;5.00;1.75;;;;;;;;;;5092081;28;20036;-82
2022/07/15 05:51:38;;;;;;;5.20;1.80;;;;;;;;;;5075241;28;20080;-81
2022/07/15 05:54:04;;;;;;;4.43;1.90;;;;;;;;;;5068389;28;20032;-82
2022/07/15 05:56:31;;;;;;;2.60;1.85;;;;;;;;;;5085953;28;20505;-81
2022/07/15 05:58:57;;;;;;;3.92;1.75;;;;;;;;;;5092583;28;20036;-82
2022/07/15 06:01:27;;;;;;;3.78;1.88;;;;;;;;;;5078303;28;20447;-80
2022/07/15 06:03:53;;;;;;;5.13;1.80;;;;;;;;;;5092442;28;20123;-82
2022/07/15 06:06:19;;;;;;;3.55;2.10;;;;;;;;;;5091448;28;20020;-82
2022/07/15 06:08:47;;;;;;;4.55;1.92;;;;;;;;;;5091687;28;20123;-83
2022/07/15 06:11:13;;;;;;;4.03;1.92;;;;;;;;;;5074142;28;20133;-82
2022/07/15 06:13:40;;;;;;;6.32;1.90;;;;;;;;;;5091227;28;20508;-81
2022/07/15 06:16:06;;;;;;;5.97;1.90;;;;;;;;;;5074701;28;20024;-81
2022/07/15 06:18:32;;;;;;;3.92;2.00;;;;;;;;;;5091526;28;20044;-81
2022/07/15 06:20:57;;;;;;;4.03;1.92;;;;;;;;;;5089915;28;20035;-81
2022/07/15 06:23:24;;;;;;;3.65;2.17;;;;;;;;;;5091179;28;20032;-81
2022/07/15 06:25:50;;;;;;;4.30;1.83;;;;;;;;;;5054602;28;20020;-82
2022/07/15 06:28:15;;;;;;;4.00;2.05;;;;;;;;;;5063531;28;20127;-83
2022/07/15 06:30:41;;;;;;;6.45;1.80;;;;;;;;;;5043379;28;20105;-82
2022/07/15 06:33:06;;;;;;;4.65;1.65;;;;;;;;;;5063610;28;20044;-81
2022/07/15 06:35:32;;;;;;;4.20;1.70;;;;;;;;;;5059598;28;20166;-81
2022/07/15 06:37:57;;;;;;;8.68;1.83;;;;;;;;;;5093675;28;20059;-81
2022/07/15 06:40:23;;;;;;;3.90;1.50;;;;;;;;;;5057995;28;20538;-81
2022/07/15 06:42:48;;;;;;;2.92;1.60;;;;;;;;;;5075313;28;20115;-82
2022/07/15 06:45:24;;;;;;;3.03;1.40;;;;;;;;;;5091997;28;20024;-82
2022/07/15 06:47:49;;;;;;;2.80;1.48;;;;;;;;;;5084163;28;20035;-81
2022/07/15 06:50:15;;;;;;;3.50;1.77;;;;;;;;;;5055515;28;20047;-82
2022/07/15 06:52:44;;;;;;;4.43;1.60;;;;;;;;;;5072393;28;20083;-82
2022/07/15 06:55:11;;;;;;;4.60;1.40;;;;;;;;;;5058361;28;20047;-83
2022/07/15 06:57:37;;;;;;;5.25;1.63;;;;;;;;;;5091957;28;20034;-83
2022/07/15 07:00:04;;;;;;;4.35;1.55;;;;;;;;;;5058624;28;20021;-81
2022/07/15 07:02:34;;;;;;;4.63;1.35;;;;;;;;;;5055178;28;20086;-81
2022/07/15 07:05:01;;;;;;;3.17;1.35;;;;;;;;;;5071525;28;20054;-80
2022/07/15 07:07:28;;;;;;;4.38;1.70;;;;;;;;;;5054720;28;20033;-82
2022/07/15 07:09:53;;;;;;;3.38;1.80;;;;;;;;;;5070998;28;20020;-81
2022/07/15 07:12:19;;;;;;;6.75;1.60;;;;;;;;;;5071503;28;20491;-82
2022/07/15 07:14:44;;;;;;;3.67;1.58;;;;;;;;;;5072440;28;20028;-82
2022/07/15 07:17:10;;;;;;;3.17;1.40;;;;;;;;;;5073240;28;20495;-81
2022/07/15 07:19:36;;;;;;;4.43;1.50;;;;;;;;;;5075008;28;20029;-83
2022/07/15 07:22:01;;;;;;;4.82;1.60;;;;;;;;;;5076370;28;20035;-82
2022/07/15 07:24:27;;;;;;;3.97;1.70;;;;;;;;;;5074499;28;20017;-82
2022/07/15 07:26:52;;;;;;;4.78;1.58;;;;;;;;;;5068369;28;20541;-81
2022/07/15 07:29:22;;;;;;;2.58;1.42;;;;;;;;;;5077114;28;20100;-82
2022/07/15 07:31:48;;;;;;;6.38;1.55;;;;;;;;;;5085221;28;20036;-81
2022/07/15 07:34:17;;;;;;;3.08;1.60;;;;;;;;;;5090919;28;20157;-82
2022/07/15 07:36:43;;;;;;;5.57;1.70;;;;;;;;;;5074759;28;20044;-82
2022/07/15 07:39:09;;;;;;;2.75;1.60;;;;;;;;;;5074966;28;20078;-82
2022/07/15 07:41:34;;;;;;;3.00;1.42;;;;;;;;;;5076395;28;20032;-81
2022/07/15 07:44:00;;;;;;;5.35;1.70;;;;;;;;;;5077614;28;20115;-84
2022/07/15 07:46:26;;;;;;;2.53;1.48;;;;;;;;;;5075481;28;20029;-83
2022/07/15 07:48:51;;;;;;;3.35;1.40;;;;;;;;;;5077469;28;20047;-86
2022/07/15 07:51:17;;;;;;;2.33;1.20;;;;;;;;;;5075035;28;20523;-85
2022/07/15 07:53:42;;;;;;;2.58;1.50;;;;;;;;;;5075459;28;20034;-83
2022/07/15 07:56:08;;;;;;;4.72;1.60;;;;;;;;;;5076471;28;20044;-83
2022/07/15 07:58:34;;;;;;;3.88;1.48;;;;;;;;;;5076883;28;20075;-81
2022/07/15 08:00:59;;;;;;;3.35;1.45;;;;;;;;;;5076879;28;20430;-85
2022/07/15 08:03:25;;;;;;;3.53;1.20;;;;;;;;;;5076483;28;20020;-86
2022/07/15 08:05:53;;;;;;;2.80;1.58;;;;;;;;;;5055758;28;20538;-86
2022/07/15 08:08:19;;;;;;;5.53;1.42;;;;;;;;;;5042516;28;20012;-81
2022/07/15 08:10:45;;;;;;;4.88;1.58;;;;;;;;;;5074772;28;20054;-82
2022/07/15 08:13:12;;;;;;;3.17;1.30;;;;;;;;;;5041923;28;20491;-82
2022/07/15 08:15:38;;;;;;;4.28;1.33;;;;;;;;;;5058464;28;20434;-82
2022/07/15 08:18:04;;;;;;;4.55;1.65;;;;;;;;;;5058868;28;20077;-83
2022/07/15 08:20:29;;;;;;;5.05;1.70;;;;;;;;;;5075147;28;20044;-82
2022/07/15 08:23:01;;;;;;;3.47;1.40;;;;;;;;;;5042673;28;20025;-82
2022/07/15 08:25:30;;;;;;;6.88;1.50;;;;;;;;;;5075200;28;20029;-82
2022/07/15 08:27:56;;;;;;;3.50;1.52;;;;;;;;;;5095230;28;20024;-83
2022/07/15 08:30:22;;;;;;;5.60;1.40;;;;;;;;;;5094709;28;20043;-81
2022/07/15 08:32:47;;;;;;;4.60;1.40;;;;;;;;;;5076946;28;20032;-82
2022/07/15 08:35:13;;;;;;;3.40;1.27;;;;;;;;;;5081098;28;20028;-82
2022/07/15 08:37:39;;;;;;;3.95;1.70;;;;;;;;;;5074177;28;20103;-83
2022/07/15 08:40:06;;;;;;;3.53;1.20;;;;;;;;;;5075644;28;20036;-83
2022/07/15 08:42:31;;;;;;;6.97;1.98;;;;;;;;;;5074438;28;20032;-83
2022/07/15 08:44:56;;;;;;;4.72;1.85;;;;;;;;;;5039957;28;20139;-82
2022/07/15 08:47:22;;;;;;;4.82;1.48;;;;;;;;;;5073955;28;20395;-82
2022/07/15 08:49:48;;;;;;;5.63;1.60;;;;;;;;;;5073756;28;20033;-83
2022/07/15 08:52:13;;;;;;;7.80;1.65;;;;;;;;;;5073120;28;20398;-83
2022/07/15 08:54:39;;;;;;;7.45;1.58;;;;;;;;;;5057414;28;20036;-82
2022/07/15 08:57:04;;;;;;;3.50;1.48;;;;;;;;;;5040831;28;20578;-81
2022/07/15 08:59:30;;;;;;;3.13;1.38;;;;;;;;;;5075498;28;20036;-85
2022/07/15 09:01:56;;;;;;;3.22;1.55;;;;;;;;;;5057721;28;20020;-86
2022/07/15 09:04:21;;;;;;;3.20;1.55;;;;;;;;;;5073905;28;20112;-82
2022/07/15 09:06:47;;;;;;;4.05;1.73;;;;;;;;;;5041592;28;20101;-83
2022/07/15 09:09:32;;;;;;;6.97;1.83;;;;;;;;;;5054777;28;20040;-84
2022/07/15 09:12:02;;;;;;;3.58;1.63;;;;;;;;;;5062819;28;20063;-82
2022/07/15 09:14:28;;;;;;;3.17;1.42;;;;;;;;;;5057577;28;20434;-81
2022/07/15 09:17:07;;;;;;;3.22;1.40;;;;;;;;;;5058162;28;20030;-83
2022/07/15 09:19:52;;;;;;;5.32;1.70;;;;;;;;;;5074856;28;20040;-82
2022/07/15 09:22:19;;;;;;;3.25;1.50;;;;;;;;;;5065177;28;20574;-86
2022/07/15 09:24:44;;;;;;;6.45;1.63;;;;;;;;;;5058512;28;20032;-86
2022/07/15 09:27:33;;;;;;;4.82;1.85;;;;;;;;;;5086514;28;20032;-82
2022/07/15 09:36:04;;;;;;;5.43;2.15;;;;;;;;;;5076126;28;20510;-83
2022/07/15 09:38:44;;;;;;;3.33;1.40;;;;;;;;;;5058590;28;20078;-82
2022/07/15 09:41:11;;;;;;;4.22;1.50;;;;;;;;;;5061526;28;20040;-82
2022/07/15 09:43:43;;;;;;;5.22;1.63;;;;;;;;;;5073479;28;20021;-85
2022/07/15 09:46:09;;;;;;;5.07;1.60;;;;;;;;;;5074176;28;20090;-88
2022/07/15 09:48:38;;;;;;;5.50;1.50;;;;;;;;;;5057447;28;20028;-84
2022/07/15 09:51:04;;;;;;;2.85;1.30;;;;;;;;;;5053334;28;20036;-81
2022/07/15 09:53:29;;;;;;;3.00;1.23;;;;;;;;;;5072666;28;20552;-79
2022/07/15 09:55:55;;;;;;;2.63;1.23;;;;;;;;;;5055781;28;20039;-83
2022/07/15 09:58:21;;;;;;;4.43;1.50;;;;;;;;;;5072504;28;20032;-81
2022/07/15 10:00:47;;;;;;;3.78;1.02;;;;;;;;;;5055234;28;20044;-83
2022/07/15 10:03:12;;;;;;;3.22;1.20;;;;;;;;;;5039105;28;20021;-83
2022/07/15 10:05:38;;;;;;;3.92;1.23;;;;;;;;;;5072332;28;20036;-83
2022/07/15 10:08:04;;;;;;;4.70;1.30;;;;;;;;;;5072388;28;20024;-81
2022/07/15 10:10:30;;;;;;;2.10;1.00;;;;;;;;;;5055913;28;20139;-83
2022/07/15 10:12:55;;;;;;;2.88;1.20;;;;;;;;;;5073661;28;20036;-82
2022/07/15 10:15:41;;;;;;;4.35;1.55;;;;;;;;;;5072268;28;20448;-82
2022/07/15 10:18:25;;;;;;;4.72;1.35;;;;;;;;;;5073338;28;20107;-86
2022/07/15 10:20:50;;;;;;;4.53;1.35;;;;;;;;;;5071889;28;20043;-83
2022/07/15 10:23:34;;;;;;;4.22;1.25;;;;;;;;;;5072589;28;20021;-84
2022/07/15 10:26:06;;;;;;;4.03;1.45;;;;;;;;;;5058559;28;20453;-84
2022/07/15 10:28:44;;;;;;;3.65;1.40;;;;;;;;;;5064457;28;20622;-82
2022/07/15 10:31:25;;;;;;;3.42;1.23;;;;;;;;;;5065067;28;20412;-83
2022/07/15 10:34:03;;;;;;;4.03;1.35;;;;;;;;;;5079334;28;20032;-82
2022/07/15 10:36:56;;;;;;;3.65;1.10;;;;;;;;;;5064596;28;20040;-83
2022/07/15 10:39:22;;;;;;;3.85;1.20;;;;;;;;;;5085384;28;20131;-83
2022/07/15 10:41:48;;;;;;;5.93;1.30;;;;;;;;;;5074577;28;20115;-83
2022/07/15 10:44:13;;;;;;;2.55;1.20;;;;;;;;;;5091145;28;20064;-81
2022/07/15 10:46:39;;;;;;;3.97;1.27;;;;;;;;;;5091349;28;20031;-82
2022/07/15 10:49:04;;;;;;;5.28;1.33;;;;;;;;;;5072662;28;20012;-82
2022/07/15 10:51:36;;;;;;;4.85;1.25;;;;;;;;;;5079595;28;20024;-83
2022/07/15 10:54:02;;;;;;;8.68;1.17;;;;;;;;;;5093043;28;20560;-83
2022/07/15 10:56:30;;;;;;;4.57;1.20;;;;;;;;;;5078374;28;20028;-82
2022/07/15 10:59:09;;;;;;;4.22;1.50;;;;;;;;;;5095949;28;20380;-83
2022/07/15 11:01:35;;;;;;;4.35;1.38;;;;;;;;;;5078765;28;20042;-83
2022/07/15 11:04:10;;;;;;;3.78;1.20;;;;;;;;;;5077690;28;20020;-83
2022/07/15 11:06:55;;;;;;;6.70;1.50;;;;;;;;;;5097442;28;20053;-83
2022/07/15 11:09:40;;;;;;;5.05;1.42;;;;;;;;;;5064559;28;20411;-82
2022/07/15 11:12:05;;;;;;;7.47;1.90;;;;;;;;;;5094293;28;20066;-81
2022/07/15 11:14:47;;;;;;;6.28;2.55;;;;;;;;;;5086176;28;20036;-81
2022/07/15 11:17:13;;;;;;;4.00;1.63;;;;;;;;;;5094900;28;20047;-86
2022/07/15 11:19:39;;;;;;;6.43;1.60;;;;;;;;;;5078752;28;20032;-84
2022/07/15 11:22:04;;;;;;;4.78;1.35;;;;;;;;;;5095358;28;20032;-82
2022/07/15 11:24:31;;;;;;;6.20;1.73;;;;;;;;;;5095306;28;20020;-82
2022/07/15 11:26:59;;;;;;;5.75;1.40;;;;;;;;;;5086044;28;20032;-81
2022/07/15 11:29:24;;;;;;;4.95;1.80;;;;;;;;;;5060727;28;20032;-82
2022/07/15 11:31:50;;;;;;;6.80;1.33;;;;;;;;;;5094609;28;20035;-82
2022/07/15 11:34:15;;;;;;;5.03;1.30;;;;;;;;;;5077685;28;20027;-84
2022/07/15 11:36:41;;;;;;;3.30;1.25;;;;;;;;;;5078607;28;20032;-83
2022/07/15 11:39:06;;;;;;;5.40;1.58;;;;;;;;;;5094879;28;20552;-82
2022/07/15 11:44:32;;;;;;;7.80;1.60;;;;;;;;;;5078102;28;20048;-81
2022/07/15 11:46:58;;;;;;;4.78;1.52;;;;;;;;;;5075963;28;20494;-81
2022/07/15 11:49:30;;;;;;;8.95;1.45;;;;;;;;;;5096552;28;20047;-83
2022/07/15 11:51:56;;;;;;;3.22;1.30;;;;;;;;;;5094661;28;20082;-82
2022/07/15 11:54:22;;;;;;;4.38;1.30;;;;;;;;;;5095516;28;20031;-81
2022/07/15 11:57:14;;;;;;;3.75;1.00;;;;;;;;;;5092842;28;20035;-81
2022/07/15 11:59:40;;;;;;;5.72;1.20;;;;;;;;;;5089847;28;20040;-82
2022/07/15 12:02:06;;;;;;;5.35;1.20;;;;;;;;;;5076300;28;20130;-86
2022/07/15 12:04:32;;;;;;;4.88;1.45;;;;;;;;;;5076424;28;20521;-82
2022/07/15 12:06:58;;;;;;;3.47;1.10;;;;;;;;;;5076183;28;20024;-83
2022/07/15 12:09:24;;;;;;;4.40;1.35;;;;;;;;;;5064465;28;20033;-81
2022/07/15 12:11:49;;;;;;;3.50;1.30;;;;;;;;;;5092663;28;20058;-81
2022/07/15 12:14:18;;;;;;;4.90;1.30;;;;;;;;;;5081237;28;20502;-81
2022/07/15 12:16:45;;;;;;;3.95;1.40;;;;;;;;;;5087816;28;20437;-81
2022/07/15 12:19:17;;;;;;;4.20;1.30;;;;;;;;;;5086086;28;20078;-81
2022/07/15 12:21:44;;;;;;;3.60;1.40;;;;;;;;;;5071987;28;20059;-81
2022/07/15 12:24:10;;;;;;;2.70;1.20;;;;;;;;;;5090423;28;20024;-82
2022/07/15 12:26:40;;;;;;;3.60;1.35;;;;;;;;;;5066017;28;20043;-81
2022/07/15 12:29:06;;;;;;;4.15;1.42;;;;;;;;;;5080363;28;20040;-83
2022/07/15 12:31:33;;;;;;;4.55;1.40;;;;;;;;;;5087106;28;20037;-85
2022/07/15 12:33:59;;;;;;;3.35;1.27;;;;;;;;;;5089234;28;20456;-83
2022/07/15 12:36:26;;;;;;;4.03;1.45;;;;;;;;;;5086190;28;20024;-84
2022/07/15 12:39:03;;;;;;;4.35;1.20;;;;;;;;;;5072344;28;20043;-82
2022/07/15 12:41:29;;;;;;;4.03;1.30;;;;;;;;;;5083552;28;20110;-83
2022/07/15 12:43:56;;;;;;;4.65;1.27;;;;;;;;;;5078578;28;20478;-82
2022/07/15 12:46:40;;;;;;;4.35;1.50;;;;;;;;;;5094390;28;20595;-83
2022/07/15 12:49:09;;;;;;;4.45;1.33;;;;;;;;;;5091278;28;20032;-85
2022/07/15 12:51:35;;;;;;;6.68;1.10;;;;;;;;;;5072095;28;20518;-82
2022/07/15 12:54:04;;;;;;;3.40;1.40;;;;;;;;;;5095376;28;20442;-81
2022/07/15 12:56:30;;;;;;;4.05;1.30;;;;;;;;;;5093451;28;20043;-82
2022/07/15 12:58:55;;;;;;;5.10;1.20;;;;;;;;;;5094489;28;20036;-82
2022/07/15 13:01:21;;;;;;;3.63;1.30;;;;;;;;;;5092143;28;20035;-83
2022/07/15 13:03:46;;;;;;;3.90;1.48;;;;;;;;;;5093869;28;20028;-83
2022/07/15 13:06:14;;;;;;;4.05;1.30;;;;;;;;;;5093338;28;20466;-85
2022/07/15 13:08:40;;;;;;;7.07;2.38;;;;;;;;;;5092470;28;20032;-82
2022/07/15 13:11:08;;;;;;;7.25;1.63;;;;;;;;;;5091705;28;20089;-85
2022/07/15 13:13:35;;;;;;;5.40;1.70;;;;;;;;;;5076574;28;20497;-82
2022/07/15 13:16:01;;;;;;;7.18;1.77;;;;;;;;;;5075359;28;20028;-87
2022/07/15 13:18:27;;;;;;;4.22;1.30;;;;;;;;;;5094247;28;20039;-82
2022/07/15 13:20:53;;;;;;;5.78;1.40;;;;;;;;;;5084370;28;20033;-83
2022/07/15 13:23:18;;;;;;;6.50;1.35;;;;;;;;;;5086005;28;20058;-83
2022/07/15 13:25:45;;;;;;;4.95;1.48;;;;;;;;;;5040957;28;20017;-83
2022/07/15 13:28:10;;;;;;;5.75;1.40;;;;;;;;;;5088014;28;20032;-82
2022/07/15 13:30:36;;;;;;;5.57;1.40;;;;;;;;;;5075980;28;20505;-82
2022/07/15 13:33:02;;;;;;;2.95;1.30;;;;;;;;;;5086245;28;20037;-81
2022/07/15 13:35:27;;;;;;;4.35;1.40;;;;;;;;;;5074757;28;20070;-82
2022/07/15 13:37:53;;;;;;;5.10;1.38;;;;;;;;;;5073219;28;20025;-83
2022/07/15 13:40:18;;;;;;;6.30;1.40;;;;;;;;;;5056524;28;20021;-81
2022/07/15 13:42:44;;;;;;;7.32;1.60;;;;;;;;;;5060470;28;20036;-81
2022/07/15 13:45:10;;;;;;;6.22;1.40;;;;;;;;;;5087746;28;20395;-82
2022/07/15 13:47:36;;;;;;;5.32;2.13;;;;;;;;;;5095269;28;20667;-83
2022/07/15 13:52:49;;;;;;;4.03;1.45;;;;;;;;;;5083736;28;20495;-82
2022/07/15 13:55:15;;;;;;;6.90;1.60;;;;;;;;;;5072347;28;20170;-81
2022/07/15 13:57:41;;;;;;;4.10;1.10;;;;;;;;;;5092643;28;20127;-83
2022/07/15 14:00:07;;;;;;;4.03;1.38;;;;;;;;;;5092848;28;20034;-83
2022/07/15 14:02:33;;;;;;;6.43;1.33;;;;;;;;;;5062168;28;20056;-86
2022/07/15 14:04:59;;;;;;;5.28;1.70;;;;;;;;;;5074923;28;20015;-85
2022/07/15 14:07:24;;;;;;;3.83;1.58;;;;;;;;;;5075803;28;20032;-82
2022/07/15 14:09:50;;;;;;;3.53;1.30;;;;;;;;;;5057851;28;20035;-85
2022/07/15 14:12:15;;;;;;;3.95;1.25;;;;;;;;;;5075993;28;20035;-84
2022/07/15 14:14:40;;;;;;;7.45;2.08;;;;;;;;;;5093701;28;20051;-86
2022/07/15 14:17:06;;;;;;;7.68;1.27;;;;;;;;;;5065906;28;20453;-82
2022/07/15 14:19:32;;;;;;;4.20;1.05;;;;;;;;;;5043431;28;20031;-82
2022/07/15 14:21:57;;;;;;;4.40;1.48;;;;;;;;;;5076209;28;20134;-84
2022/07/15 14:24:23;;;;;;;2.63;1.20;;;;;;;;;;5075336;28;20368;-84
2022/07/15 14:26:48;;;;;;;5.57;1.67;;;;;;;;;;5092906;28;20104;-85
2022/07/15 14:29:14;;;;;;;3.88;1.42;;;;;;;;;;5081448;28;20058;-82
2022/07/15 14:31:39;;;;;;;4.95;1.50;;;;;;;;;;5088303;28;20036;-82
2022/07/15 14:34:04;;;;;;;5.15;1.25;;;;;;;;;;5094011;28;20028;-82
2022/07/15 14:36:30;;;;;;;5.57;1.40;;;;;;;;;;5080076;28;20131;-82
2022/07/15 14:38:55;;;;;;;6.78;1.83;;;;;;;;;;5097351;28;20490;-85
2022/07/15 14:41:21;;;;;;;4.32;1.60;;;;;;;;;;5078063;28;20029;-82
2022/07/15 14:43:46;;;;;;;4.72;1.55;;;;;;;;;;5043768;28;20456;-81
2022/07/15 14:46:12;;;;;;;4.65;1.55;;;;;;;;;;5078523;28;20123;-83
2022/07/15 14:48:37;;;;;;;5.13;1.77;;;;;;;;;;5043780;28;20115;-82
2022/07/15 14:51:03;;;;;;;5.95;1.55;;;;;;;;;;5076850;28;20123;-82
2022/07/15 14:53:28;;;;;;;7.80;1.75;;;;;;;;;;5077311;28;20058;-82
2022/07/15 14:55:54;;;;;;;10.02;2.05;;;;;;;;;;5077958;28;20036;-82
2022/07/15 14:58:19;;;;;;;5.53;1.63;;;;;;;;;;5096417;28;20042;-82
2022/07/15 15:00:45;;;;;;;8.35;1.75;;;;;;;;;;5096345;28;20042;-82